sensor_id;sensor_type;location;lat;lon;timestamp;P1;durP1;ratioP1;P2;durP2;ratioP2
67108;SDS011;54027;50.786;7.058;2023-05-20T00:01:26;4.28;;;2.20;;
67108;SDS011;54027;50.786;7.058;2023-05-20T00:03:51;6.72;;;1.95;;
67108;SDS011;54027;50.786;7.058;2023-05-20T00:06:17;3.17;;;1.77;;
67108;SDS011;54027;50.786;7.058;2023-05-20T00:08:42;2.58;;;1.75;;
67108;SDS011;54027;50.786;7.058;2023-05-20T00:11:08;4.35;;;1.65;;
67108;SDS011;54027;50.786;7.058;2023-05-20T00:13:33;2.85;;;1.50;;
67108;SDS011;54027;50.786;7.058;2023-05-20T00:16:00;4.07;;;1.42;;
67108;SDS011;54027;50.786;7.058;2023-05-20T00:18:25;3.13;;;1.50;;
67108;SDS011;54027;50.786;7.058;2023-05-20T00:20:51;4.05;;;1.88;;
67108;SDS011;54027;50.786;7.058;2023-05-20T00:23:18;2.75;;;1.70;;
67108;SDS011;54027;50.786;7.058;2023-05-20T00:25:44;3.88;;;1.75;;
67108;SDS011;54027;50.786;7.058;2023-05-20T00:28:09;4.82;;;1.45;;
67108;SDS011;54027;50.786;7.058;2023-05-20T00:30:34;3.58;;;1.75;;
67108;SDS011;54027;50.786;7.058;2023-05-20T00:33:00;3.08;;;1.92;;
67108;SDS011;54027;50.786;7.058;2023-05-20T00:35:25;3.13;;;1.70;;
67108;SDS011;54027;50.786;7.058;2023-05-20T00:37:51;3.80;;;1.45;;
67108;SDS011;54027;50.786;7.058;2023-05-20T00:40:16;4.00;;;1.60;;
67108;SDS011;54027;50.786;7.058;2023-05-20T00:42:42;4.47;;;1.70;;
67108;SDS011;54027;50.786;7.058;2023-05-20T00:45:07;2.20;;;1.60;;
67108;SDS011;54027;50.786;7.058;2023-05-20T00:47:33;3.15;;;1.60;;
67108;SDS011;54027;50.786;7.058;2023-05-20T00:50:00;3.42;;;1.60;;
67108;SDS011;54027;50.786;7.058;2023-05-20T00:52:28;5.93;;;2.03;;
67108;SDS011;54027;50.786;7.058;2023-05-20T00:54:55;5.30;;;1.98;;
67108;SDS011;54027;50.786;7.058;2023-05-20T00:57:22;4.38;;;1.58;;
67108;SDS011;54027;50.786;7.058;2023-05-20T00:59:47;3.58;;;1.70;;
67108;SDS011;54027;50.786;7.058;2023-05-20T01:02:13;4.40;;;1.60;;
67108;SDS011;54027;50.786;7.058;2023-05-20T01:04:38;4.38;;;1.83;;
67108;SDS011;54027;50.786;7.058;2023-05-20T01:07:04;3.88;;;1.67;;
67108;SDS011;54027;50.786;7.058;2023-05-20T01:09:31;4.05;;;1.65;;
67108;SDS011;54027;50.786;7.058;2023-05-20T01:14:35;3.80;;;1.88;;
67108;SDS011;54027;50.786;7.058;2023-05-20T01:17:04;3.97;;;1.92;;
67108;SDS011;54027;50.786;7.058;2023-05-20T01:19:37;4.18;;;2.22;;
67108;SDS011;54027;50.786;7.058;2023-05-20T01:22:08;4.13;;;1.95;;
67108;SDS011;54027;50.786;7.058;2023-05-20T01:24:37;2.92;;;1.80;;
67108;SDS011;54027;50.786;7.058;2023-05-20T01:27:06;2.80;;;1.60;;
67108;SDS011;54027;50.786;7.058;2023-05-20T01:29:34;3.50;;;1.85;;
67108;SDS011;54027;50.786;7.058;2023-05-20T01:32:02;2.75;;;1.77;;
67108;SDS011;54027;50.786;7.058;2023-05-20T01:34:30;2.67;;;1.73;;
67108;SDS011;54027;50.786;7.058;2023-05-20T01:36:57;4.45;;;1.60;;
67108;SDS011;54027;50.786;7.058;2023-05-20T01:39:23;2.72;;;1.63;;
67108;SDS011;54027;50.786;7.058;2023-05-20T01:41:49;3.03;;;1.63;;
67108;SDS011;54027;50.786;7.058;2023-05-20T01:44:15;3.63;;;2.10;;
67108;SDS011;54027;50.786;7.058;2023-05-20T01:46:40;2.63;;;1.80;;
67108;SDS011;54027;50.786;7.058;2023-05-20T01:49:05;4.57;;;1.65;;
67108;SDS011;54027;50.786;7.058;2023-05-20T01:51:31;3.40;;;1.80;;
67108;SDS011;54027;50.786;7.058;2023-05-20T01:53:59;3.50;;;1.98;;
67108;SDS011;54027;50.786;7.058;2023-05-20T01:56:24;6.40;;;1.83;;
67108;SDS011;54027;50.786;7.058;2023-05-20T01:58:50;4.00;;;1.60;;
67108;SDS011;54027;50.786;7.058;2023-05-20T02:01:15;4.82;;;2.05;;
67108;SDS011;54027;50.786;7.058;2023-05-20T02:03:40;4.78;;;1.58;;
67108;SDS011;54027;50.786;7.058;2023-05-20T02:06:06;2.05;;;1.73;;
67108;SDS011;54027;50.786;7.058;2023-05-20T02:08:31;4.43;;;2.00;;
67108;SDS011;54027;50.786;7.058;2023-05-20T02:10:56;2.53;;;1.50;;
67108;SDS011;54027;50.786;7.058;2023-05-20T02:13:22;4.03;;;1.90;;
67108;SDS011;54027;50.786;7.058;2023-05-20T02:15:47;2.20;;;1.60;;
67108;SDS011;54027;50.786;7.058;2023-05-20T02:18:12;3.40;;;2.08;;
67108;SDS011;54027;50.786;7.058;2023-05-20T02:20:38;4.45;;;1.83;;
67108;SDS011;54027;50.786;7.058;2023-05-20T02:23:03;3.88;;;2.35;;
67108;SDS011;54027;50.786;7.058;2023-05-20T02:25:30;3.97;;;2.10;;
67108;SDS011;54027;50.786;7.058;2023-05-20T02:27:56;3.03;;;1.95;;
67108;SDS011;54027;50.786;7.058;2023-05-20T02:30:21;2.35;;;1.77;;
67108;SDS011;54027;50.786;7.058;2023-05-20T02:32:46;3.42;;;1.70;;
67108;SDS011;54027;50.786;7.058;2023-05-20T02:35:12;3.47;;;1.67;;
67108;SDS011;54027;50.786;7.058;2023-05-20T02:37:37;4.47;;;2.13;;
67108;SDS011;54027;50.786;7.058;2023-05-20T02:40:03;2.85;;;1.55;;
67108;SDS011;54027;50.786;7.058;2023-05-20T02:42:30;10.85;;;2.15;;
67108;SDS011;54027;50.786;7.058;2023-05-20T02:44:55;3.95;;;1.80;;
67108;SDS011;54027;50.786;7.058;2023-05-20T02:47:22;3.33;;;1.80;;
67108;SDS011;54027;50.786;7.058;2023-05-20T02:49:49;2.85;;;1.92;;
67108;SDS011;54027;50.786;7.058;2023-05-20T02:52:14;3.03;;;1.65;;
67108;SDS011;54027;50.786;7.058;2023-05-20T02:54:40;2.63;;;1.77;;
67108;SDS011;54027;50.786;7.058;2023-05-20T02:57:05;3.88;;;2.42;;
67108;SDS011;54027;50.786;7.058;2023-05-20T02:59:31;2.88;;;2.10;;
67108;SDS011;54027;50.786;7.058;2023-05-20T03:01:56;4.35;;;2.03;;
67108;SDS011;54027;50.786;7.058;2023-05-20T03:04:21;5.70;;;2.10;;
67108;SDS011;54027;50.786;7.058;2023-05-20T03:06:49;4.90;;;2.08;;
67108;SDS011;54027;50.786;7.058;2023-05-20T03:09:16;4.57;;;1.85;;
67108;SDS011;54027;50.786;7.058;2023-05-20T03:11:42;4.07;;;1.83;;
67108;SDS011;54027;50.786;7.058;2023-05-20T03:14:08;2.65;;;1.98;;
67108;SDS011;54027;50.786;7.058;2023-05-20T03:16:33;5.28;;;1.95;;
67108;SDS011;54027;50.786;7.058;2023-05-20T03:18:59;3.05;;;1.80;;
67108;SDS011;54027;50.786;7.058;2023-05-20T03:21:25;2.60;;;1.80;;
67108;SDS011;54027;50.786;7.058;2023-05-20T03:23:50;2.88;;;1.95;;
67108;SDS011;54027;50.786;7.058;2023-05-20T03:26:16;3.30;;;2.17;;
67108;SDS011;54027;50.786;7.058;2023-05-20T03:28:41;3.65;;;2.13;;
67108;SDS011;54027;50.786;7.058;2023-05-20T03:31:07;2.85;;;1.77;;
67108;SDS011;54027;50.786;7.058;2023-05-20T03:33:33;3.35;;;2.20;;
67108;SDS011;54027;50.786;7.058;2023-05-20T03:35:59;3.25;;;2.20;;
67108;SDS011;54027;50.786;7.058;2023-05-20T03:38:24;4.20;;;2.00;;
67108;SDS011;54027;50.786;7.058;2023-05-20T03:40:50;4.85;;;2.33;;
67108;SDS011;54027;50.786;7.058;2023-05-20T03:43:15;5.85;;;2.08;;
67108;SDS011;54027;50.786;7.058;2023-05-20T03:45:40;3.45;;;2.50;;
67108;SDS011;54027;50.786;7.058;2023-05-20T03:48:06;3.80;;;2.22;;
67108;SDS011;54027;50.786;7.058;2023-05-20T03:50:31;3.78;;;2.10;;
67108;SDS011;54027;50.786;7.058;2023-05-20T03:52:56;5.00;;;2.58;;
67108;SDS011;54027;50.786;7.058;2023-05-20T03:55:22;3.75;;;2.40;;
67108;SDS011;54027;50.786;7.058;2023-05-20T03:57:48;4.10;;;2.20;;
67108;SDS011;54027;50.786;7.058;2023-05-20T04:00:14;5.90;;;2.85;;
67108;SDS011;54027;50.786;7.058;2023-05-20T04:02:40;3.30;;;2.50;;
67108;SDS011;54027;50.786;7.058;2023-05-20T04:05:06;3.40;;;2.08;;
67108;SDS011;54027;50.786;7.058;2023-05-20T04:07:35;4.15;;;2.38;;
67108;SDS011;54027;50.786;7.058;2023-05-20T04:10:01;4.03;;;2.40;;
67108;SDS011;54027;50.786;7.058;2023-05-20T04:12:28;4.78;;;2.90;;
67108;SDS011;54027;50.786;7.058;2023-05-20T04:14:58;3.67;;;2.00;;
67108;SDS011;54027;50.786;7.058;2023-05-20T04:17:27;7.53;;;2.60;;
67108;SDS011;54027;50.786;7.058;2023-05-20T04:19:56;8.27;;;2.38;;
67108;SDS011;54027;50.786;7.058;2023-05-20T04:22:23;6.90;;;2.65;;
67108;SDS011;54027;50.786;7.058;2023-05-20T04:24:50;7.07;;;2.67;;
67108;SDS011;54027;50.786;7.058;2023-05-20T04:27:15;4.07;;;2.55;;
67108;SDS011;54027;50.786;7.058;2023-05-20T04:29:41;3.00;;;2.25;;
67108;SDS011;54027;50.786;7.058;2023-05-20T04:32:10;4.95;;;2.70;;
67108;SDS011;54027;50.786;7.058;2023-05-20T04:34:44;3.65;;;2.50;;
67108;SDS011;54027;50.786;7.058;2023-05-20T04:37:11;4.13;;;2.70;;
67108;SDS011;54027;50.786;7.058;2023-05-20T04:39:37;6.30;;;2.88;;
67108;SDS011;54027;50.786;7.058;2023-05-20T04:42:03;3.95;;;2.45;;
67108;SDS011;54027;50.786;7.058;2023-05-20T04:44:29;5.38;;;2.72;;
67108;SDS011;54027;50.786;7.058;2023-05-20T04:46:55;6.10;;;3.50;;
67108;SDS011;54027;50.786;7.058;2023-05-20T04:49:24;3.80;;;2.17;;
67108;SDS011;54027;50.786;7.058;2023-05-20T04:51:50;7.45;;;2.53;;
67108;SDS011;54027;50.786;7.058;2023-05-20T04:54:16;3.17;;;2.33;;
67108;SDS011;54027;50.786;7.058;2023-05-20T04:56:45;4.93;;;2.58;;
67108;SDS011;54027;50.786;7.058;2023-05-20T04:59:11;3.90;;;2.50;;
67108;SDS011;54027;50.786;7.058;2023-05-20T05:01:36;4.70;;;2.38;;
67108;SDS011;54027;50.786;7.058;2023-05-20T05:04:02;3.50;;;2.13;;
67108;SDS011;54027;50.786;7.058;2023-05-20T05:06:27;7.03;;;2.75;;
67108;SDS011;54027;50.786;7.058;2023-05-20T05:08:53;3.85;;;2.30;;
67108;SDS011;54027;50.786;7.058;2023-05-20T05:11:18;3.58;;;2.35;;
67108;SDS011;54027;50.786;7.058;2023-05-20T05:13:44;5.95;;;3.05;;
67108;SDS011;54027;50.786;7.058;2023-05-20T05:16:09;6.85;;;2.70;;
67108;SDS011;54027;50.786;7.058;2023-05-20T05:18:35;3.75;;;2.00;;
67108;SDS011;54027;50.786;7.058;2023-05-20T05:23:26;3.80;;;2.30;;
67108;SDS011;54027;50.786;7.058;2023-05-20T05:25:52;3.58;;;2.70;;
67108;SDS011;54027;50.786;7.058;2023-05-20T05:28:17;4.30;;;2.13;;
67108;SDS011;54027;50.786;7.058;2023-05-20T05:30:43;3.88;;;2.30;;
67108;SDS011;54027;50.786;7.058;2023-05-20T05:33:08;4.25;;;2.13;;
67108;SDS011;54027;50.786;7.058;2023-05-20T05:35:34;5.25;;;2.40;;
67108;SDS011;54027;50.786;7.058;2023-05-20T05:38:00;3.97;;;2.33;;
67108;SDS011;54027;50.786;7.058;2023-05-20T05:40:25;5.03;;;2.40;;
67108;SDS011;54027;50.786;7.058;2023-05-20T05:42:51;5.00;;;2.55;;
67108;SDS011;54027;50.786;7.058;2023-05-20T05:45:17;4.15;;;2.70;;
67108;SDS011;54027;50.786;7.058;2023-05-20T05:47:42;2.70;;;2.08;;
67108;SDS011;54027;50.786;7.058;2023-05-20T05:50:08;4.53;;;2.28;;
67108;SDS011;54027;50.786;7.058;2023-05-20T05:52:34;4.53;;;2.40;;
67108;SDS011;54027;50.786;7.058;2023-05-20T05:55:00;4.22;;;2.47;;
67108;SDS011;54027;50.786;7.058;2023-05-20T05:57:26;6.22;;;2.80;;
67108;SDS011;54027;50.786;7.058;2023-05-20T05:59:51;3.25;;;2.47;;
67108;SDS011;54027;50.786;7.058;2023-05-20T06:02:16;7.00;;;2.78;;
67108;SDS011;54027;50.786;7.058;2023-05-20T06:04:42;5.40;;;2.38;;
67108;SDS011;54027;50.786;7.058;2023-05-20T06:07:07;4.25;;;2.45;;
67108;SDS011;54027;50.786;7.058;2023-05-20T06:09:33;6.53;;;2.83;;
67108;SDS011;54027;50.786;7.058;2023-05-20T06:11:59;4.47;;;2.70;;
67108;SDS011;54027;50.786;7.058;2023-05-20T06:14:24;3.55;;;2.67;;
67108;SDS011;54027;50.786;7.058;2023-05-20T06:16:50;3.75;;;2.70;;
67108;SDS011;54027;50.786;7.058;2023-05-20T06:19:15;6.93;;;2.83;;
67108;SDS011;54027;50.786;7.058;2023-05-20T06:21:41;7.18;;;3.22;;
67108;SDS011;54027;50.786;7.058;2023-05-20T06:24:06;4.88;;;2.80;;
67108;SDS011;54027;50.786;7.058;2023-05-20T06:26:31;4.75;;;3.10;;
67108;SDS011;54027;50.786;7.058;2023-05-20T06:28:57;4.32;;;2.70;;
67108;SDS011;54027;50.786;7.058;2023-05-20T06:31:22;4.75;;;2.47;;
67108;SDS011;54027;50.786;7.058;2023-05-20T06:33:47;4.40;;;2.50;;
67108;SDS011;54027;50.786;7.058;2023-05-20T06:36:13;5.68;;;2.70;;
67108;SDS011;54027;50.786;7.058;2023-05-20T06:38:38;6.10;;;2.80;;
67108;SDS011;54027;50.786;7.058;2023-05-20T06:41:04;3.97;;;2.72;;
67108;SDS011;54027;50.786;7.058;2023-05-20T06:43:29;4.93;;;2.63;;
67108;SDS011;54027;50.786;7.058;2023-05-20T06:45:55;3.80;;;2.67;;
67108;SDS011;54027;50.786;7.058;2023-05-20T06:48:20;5.45;;;2.72;;
67108;SDS011;54027;50.786;7.058;2023-05-20T06:50:45;5.07;;;3.08;;
67108;SDS011;54027;50.786;7.058;2023-05-20T06:53:11;3.58;;;2.67;;
67108;SDS011;54027;50.786;7.058;2023-05-20T06:55:36;3.35;;;2.50;;
67108;SDS011;54027;50.786;7.058;2023-05-20T06:58:02;5.25;;;2.80;;
67108;SDS011;54027;50.786;7.058;2023-05-20T07:00:27;3.75;;;2.80;;
67108;SDS011;54027;50.786;7.058;2023-05-20T07:02:53;6.43;;;3.20;;
67108;SDS011;54027;50.786;7.058;2023-05-20T07:05:18;4.30;;;2.83;;
67108;SDS011;54027;50.786;7.058;2023-05-20T07:07:44;4.78;;;3.00;;
67108;SDS011;54027;50.786;7.058;2023-05-20T07:10:09;7.78;;;3.33;;
67108;SDS011;54027;50.786;7.058;2023-05-20T07:12:35;4.78;;;2.80;;
67108;SDS011;54027;50.786;7.058;2023-05-20T07:15:00;4.60;;;2.58;;
67108;SDS011;54027;50.786;7.058;2023-05-20T07:17:26;5.28;;;3.13;;
67108;SDS011;54027;50.786;7.058;2023-05-20T07:19:53;4.90;;;2.92;;
67108;SDS011;54027;50.786;7.058;2023-05-20T07:22:19;3.35;;;2.88;;
67108;SDS011;54027;50.786;7.058;2023-05-20T07:24:45;8.15;;;2.97;;
67108;SDS011;54027;50.786;7.058;2023-05-20T07:27:10;4.82;;;3.13;;
67108;SDS011;54027;50.786;7.058;2023-05-20T07:29:36;4.93;;;3.03;;
67108;SDS011;54027;50.786;7.058;2023-05-20T07:32:05;4.85;;;2.83;;
67108;SDS011;54027;50.786;7.058;2023-05-20T07:34:32;6.13;;;2.72;;
67108;SDS011;54027;50.786;7.058;2023-05-20T07:36:58;5.05;;;2.80;;
67108;SDS011;54027;50.786;7.058;2023-05-20T07:39:23;5.38;;;3.28;;
67108;SDS011;54027;50.786;7.058;2023-05-20T07:41:49;4.38;;;2.75;;
67108;SDS011;54027;50.786;7.058;2023-05-20T07:44:15;5.38;;;2.78;;
67108;SDS011;54027;50.786;7.058;2023-05-20T07:46:42;4.97;;;3.30;;
67108;SDS011;54027;50.786;7.058;2023-05-20T07:49:08;3.00;;;2.70;;
67108;SDS011;54027;50.786;7.058;2023-05-20T07:51:34;3.83;;;2.50;;
67108;SDS011;54027;50.786;7.058;2023-05-20T07:53:59;4.65;;;2.78;;
67108;SDS011;54027;50.786;7.058;2023-05-20T07:56:25;6.03;;;3.10;;
67108;SDS011;54027;50.786;7.058;2023-05-20T07:58:51;3.88;;;2.97;;
67108;SDS011;54027;50.786;7.058;2023-05-20T08:01:19;5.75;;;3.17;;
67108;SDS011;54027;50.786;7.058;2023-05-20T08:03:45;4.43;;;2.88;;
67108;SDS011;54027;50.786;7.058;2023-05-20T08:06:10;3.28;;;2.40;;
67108;SDS011;54027;50.786;7.058;2023-05-20T08:08:36;4.32;;;2.60;;
67108;SDS011;54027;50.786;7.058;2023-05-20T08:11:01;5.70;;;2.60;;
67108;SDS011;54027;50.786;7.058;2023-05-20T08:13:28;3.83;;;2.70;;
67108;SDS011;54027;50.786;7.058;2023-05-20T08:15:53;5.80;;;3.10;;
67108;SDS011;54027;50.786;7.058;2023-05-20T08:18:19;5.95;;;3.28;;
67108;SDS011;54027;50.786;7.058;2023-05-20T08:20:44;4.07;;;2.90;;
67108;SDS011;54027;50.786;7.058;2023-05-20T08:23:09;4.38;;;2.60;;
67108;SDS011;54027;50.786;7.058;2023-05-20T08:25:35;6.30;;;2.58;;
67108;SDS011;54027;50.786;7.058;2023-05-20T08:28:02;5.00;;;3.15;;
67108;SDS011;54027;50.786;7.058;2023-05-20T08:30:29;4.18;;;2.80;;
67108;SDS011;54027;50.786;7.058;2023-05-20T08:32:55;8.02;;;3.17;;
67108;SDS011;54027;50.786;7.058;2023-05-20T08:35:22;5.10;;;2.72;;
67108;SDS011;54027;50.786;7.058;2023-05-20T08:37:48;6.18;;;3.00;;
67108;SDS011;54027;50.786;7.058;2023-05-20T08:40:13;4.10;;;3.00;;
67108;SDS011;54027;50.786;7.058;2023-05-20T08:42:42;6.35;;;2.83;;
67108;SDS011;54027;50.786;7.058;2023-05-20T08:45:11;6.97;;;2.70;;
67108;SDS011;54027;50.786;7.058;2023-05-20T08:47:40;4.13;;;2.88;;
67108;SDS011;54027;50.786;7.058;2023-05-20T08:50:07;2.92;;;2.60;;
67108;SDS011;54027;50.786;7.058;2023-05-20T08:52:35;7.28;;;2.25;;
67108;SDS011;54027;50.786;7.058;2023-05-20T08:55:02;11.48;;;3.20;;
67108;SDS011;54027;50.786;7.058;2023-05-20T08:57:32;8.77;;;2.97;;
67108;SDS011;54027;50.786;7.058;2023-05-20T08:59:58;5.93;;;2.80;;
67108;SDS011;54027;50.786;7.058;2023-05-20T09:02:24;5.25;;;2.95;;
67108;SDS011;54027;50.786;7.058;2023-05-20T09:04:49;7.45;;;3.17;;
67108;SDS011;54027;50.786;7.058;2023-05-20T09:07:25;5.78;;;3.45;;
67108;SDS011;54027;50.786;7.058;2023-05-20T09:09:53;3.38;;;2.63;;
67108;SDS011;54027;50.786;7.058;2023-05-20T09:12:19;6.90;;;2.72;;
67108;SDS011;54027;50.786;7.058;2023-05-20T09:14:45;5.45;;;3.10;;
67108;SDS011;54027;50.786;7.058;2023-05-20T09:17:11;2.65;;;2.33;;
67108;SDS011;54027;50.786;7.058;2023-05-20T09:19:37;3.33;;;2.50;;
67108;SDS011;54027;50.786;7.058;2023-05-20T09:22:03;8.20;;;2.83;;
67108;SDS011;54027;50.786;7.058;2023-05-20T09:24:29;4.63;;;2.55;;
67108;SDS011;54027;50.786;7.058;2023-05-20T09:26:55;7.43;;;3.20;;
67108;SDS011;54027;50.786;7.058;2023-05-20T09:29:21;6.88;;;3.35;;
67108;SDS011;54027;50.786;7.058;2023-05-20T09:31:47;4.85;;;2.72;;
67108;SDS011;54027;50.786;7.058;2023-05-20T09:34:14;6.30;;;2.83;;
67108;SDS011;54027;50.786;7.058;2023-05-20T09:36:41;5.57;;;3.30;;
67108;SDS011;54027;50.786;7.058;2023-05-20T09:39:08;3.88;;;2.70;;
67108;SDS011;54027;50.786;7.058;2023-05-20T09:41:40;4.47;;;3.03;;
67108;SDS011;54027;50.786;7.058;2023-05-20T09:44:10;4.30;;;2.75;;
67108;SDS011;54027;50.786;7.058;2023-05-20T09:46:37;4.32;;;2.63;;
67108;SDS011;54027;50.786;7.058;2023-05-20T09:49:04;5.32;;;2.70;;
67108;SDS011;54027;50.786;7.058;2023-05-20T09:51:32;5.80;;;2.65;;
67108;SDS011;54027;50.786;7.058;2023-05-20T09:53:58;3.47;;;3.00;;
67108;SDS011;54027;50.786;7.058;2023-05-20T09:56:24;4.35;;;2.85;;
67108;SDS011;54027;50.786;7.058;2023-05-20T09:58:52;4.03;;;2.67;;
67108;SDS011;54027;50.786;7.058;2023-05-20T10:01:22;3.53;;;2.63;;
67108;SDS011;54027;50.786;7.058;2023-05-20T10:03:48;9.30;;;2.75;;
67108;SDS011;54027;50.786;7.058;2023-05-20T10:12:18;5.40;;;2.67;;
67108;SDS011;54027;50.786;7.058;2023-05-20T10:15:00;3.85;;;2.88;;
67108;SDS011;54027;50.786;7.058;2023-05-20T10:20:15;5.38;;;2.97;;
67108;SDS011;54027;50.786;7.058;2023-05-20T10:22:40;4.03;;;2.83;;
67108;SDS011;54027;50.786;7.058;2023-05-20T10:25:06;3.65;;;2.75;;
67108;SDS011;54027;50.786;7.058;2023-05-20T10:27:43;4.20;;;2.80;;
67108;SDS011;54027;50.786;7.058;2023-05-20T10:30:16;4.70;;;3.03;;
67108;SDS011;54027;50.786;7.058;2023-05-20T10:32:52;5.70;;;3.00;;
67108;SDS011;54027;50.786;7.058;2023-05-20T10:35:24;4.72;;;3.45;;
67108;SDS011;54027;50.786;7.058;2023-05-20T10:37:52;6.38;;;3.17;;
67108;SDS011;54027;50.786;7.058;2023-05-20T10:40:19;4.63;;;3.30;;
67108;SDS011;54027;50.786;7.058;2023-05-20T10:42:46;3.47;;;3.05;;
67108;SDS011;54027;50.786;7.058;2023-05-20T10:45:23;8.55;;;3.30;;
67108;SDS011;54027;50.786;7.058;2023-05-20T10:47:54;16.17;;;4.75;;
67108;SDS011;54027;50.786;7.058;2023-05-20T10:50:33;6.63;;;3.20;;
67108;SDS011;54027;50.786;7.058;2023-05-20T10:53:03;7.57;;;4.05;;
67108;SDS011;54027;50.786;7.058;2023-05-20T10:55:36;4.63;;;3.00;;
67108;SDS011;54027;50.786;7.058;2023-05-20T10:58:03;4.55;;;3.50;;
67108;SDS011;54027;50.786;7.058;2023-05-20T11:00:30;3.72;;;3.20;;
67108;SDS011;54027;50.786;7.058;2023-05-20T11:02:58;4.32;;;3.17;;
67108;SDS011;54027;50.786;7.058;2023-05-20T11:05:25;5.25;;;3.20;;
67108;SDS011;54027;50.786;7.058;2023-05-20T11:07:59;5.47;;;3.13;;
67108;SDS011;54027;50.786;7.058;2023-05-20T11:10:25;5.20;;;3.40;;
67108;SDS011;54027;50.786;7.058;2023-05-20T11:12:50;6.30;;;3.22;;
67108;SDS011;54027;50.786;7.058;2023-05-20T11:15:16;5.80;;;3.65;;
67108;SDS011;54027;50.786;7.058;2023-05-20T11:17:52;4.90;;;3.60;;
67108;SDS011;54027;50.786;7.058;2023-05-20T11:20:18;4.18;;;3.35;;
67108;SDS011;54027;50.786;7.058;2023-05-20T11:22:44;5.32;;;3.30;;
67108;SDS011;54027;50.786;7.058;2023-05-20T11:25:09;4.57;;;3.70;;
67108;SDS011;54027;50.786;7.058;2023-05-20T11:27:37;5.63;;;3.72;;
67108;SDS011;54027;50.786;7.058;2023-05-20T11:30:03;5.43;;;4.22;;
67108;SDS011;54027;50.786;7.058;2023-05-20T11:32:30;6.80;;;3.97;;
67108;SDS011;54027;50.786;7.058;2023-05-20T11:34:55;4.22;;;3.72;;
67108;SDS011;54027;50.786;7.058;2023-05-20T11:37:21;5.72;;;3.80;;
67108;SDS011;54027;50.786;7.058;2023-05-20T11:39:48;4.20;;;3.80;;
67108;SDS011;54027;50.786;7.058;2023-05-20T11:42:14;5.53;;;3.78;;
67108;SDS011;54027;50.786;7.058;2023-05-20T11:44:43;4.25;;;3.58;;
67108;SDS011;54027;50.786;7.058;2023-05-20T11:47:09;5.97;;;3.67;;
67108;SDS011;54027;50.786;7.058;2023-05-20T11:49:40;5.68;;;3.95;;
67108;SDS011;54027;50.786;7.058;2023-05-20T11:52:07;5.55;;;3.47;;
67108;SDS011;54027;50.786;7.058;2023-05-20T11:54:36;6.28;;;4.03;;
67108;SDS011;54027;50.786;7.058;2023-05-20T11:57:02;5.25;;;3.65;;
67108;SDS011;54027;50.786;7.058;2023-05-20T11:59:27;5.20;;;3.47;;
67108;SDS011;54027;50.786;7.058;2023-05-20T12:01:53;7.90;;;4.07;;
67108;SDS011;54027;50.786;7.058;2023-05-20T12:04:18;4.82;;;3.78;;
67108;SDS011;54027;50.786;7.058;2023-05-20T12:06:44;8.90;;;3.60;;
67108;SDS011;54027;50.786;7.058;2023-05-20T12:09:09;4.80;;;3.50;;
67108;SDS011;54027;50.786;7.058;2023-05-20T12:11:35;3.97;;;3.58;;
67108;SDS011;54027;50.786;7.058;2023-05-20T12:14:02;6.40;;;4.05;;
67108;SDS011;54027;50.786;7.058;2023-05-20T12:16:29;9.02;;;4.30;;
67108;SDS011;54027;50.786;7.058;2023-05-20T12:18:56;5.68;;;3.78;;
67108;SDS011;54027;50.786;7.058;2023-05-20T12:21:21;6.55;;;3.65;;
67108;SDS011;54027;50.786;7.058;2023-05-20T12:23:46;6.53;;;3.63;;
67108;SDS011;54027;50.786;7.058;2023-05-20T12:26:12;5.65;;;3.50;;
67108;SDS011;54027;50.786;7.058;2023-05-20T12:28:37;5.32;;;3.95;;
67108;SDS011;54027;50.786;7.058;2023-05-20T12:31:02;7.55;;;3.58;;
67108;SDS011;54027;50.786;7.058;2023-05-20T12:33:28;5.60;;;3.55;;
67108;SDS011;54027;50.786;7.058;2023-05-20T12:35:53;7.88;;;4.53;;
67108;SDS011;54027;50.786;7.058;2023-05-20T12:38:18;5.18;;;3.90;;
67108;SDS011;54027;50.786;7.058;2023-05-20T12:40:44;5.30;;;3.45;;
67108;SDS011;54027;50.786;7.058;2023-05-20T12:43:09;5.03;;;3.45;;
67108;SDS011;54027;50.786;7.058;2023-05-20T12:45:34;6.07;;;3.85;;
67108;SDS011;54027;50.786;7.058;2023-05-20T12:48:00;5.50;;;4.10;;
67108;SDS011;54027;50.786;7.058;2023-05-20T12:50:26;5.00;;;3.90;;
67108;SDS011;54027;50.786;7.058;2023-05-20T12:52:51;5.22;;;4.10;;
67108;SDS011;54027;50.786;7.058;2023-05-20T12:55:17;7.35;;;4.47;;
67108;SDS011;54027;50.786;7.058;2023-05-20T12:57:43;6.55;;;3.72;;
67108;SDS011;54027;50.786;7.058;2023-05-20T13:00:09;5.93;;;4.10;;
67108;SDS011;54027;50.786;7.058;2023-05-20T13:02:36;4.57;;;3.78;;
67108;SDS011;54027;50.786;7.058;2023-05-20T13:05:03;6.25;;;3.67;;
67108;SDS011;54027;50.786;7.058;2023-05-20T13:07:29;5.38;;;3.58;;
67108;SDS011;54027;50.786;7.058;2023-05-20T13:09:55;4.55;;;3.78;;
67108;SDS011;54027;50.786;7.058;2023-05-20T13:12:21;5.30;;;3.97;;
67108;SDS011;54027;50.786;7.058;2023-05-20T13:14:46;4.60;;;3.55;;
67108;SDS011;54027;50.786;7.058;2023-05-20T13:17:12;5.85;;;3.40;;
67108;SDS011;54027;50.786;7.058;2023-05-20T13:19:37;4.63;;;3.35;;
67108;SDS011;54027;50.786;7.058;2023-05-20T13:22:03;7.22;;;3.38;;
67108;SDS011;54027;50.786;7.058;2023-05-20T13:24:30;7.93;;;3.65;;
67108;SDS011;54027;50.786;7.058;2023-05-20T13:26:56;4.90;;;3.65;;
67108;SDS011;54027;50.786;7.058;2023-05-20T13:29:21;8.18;;;5.10;;
67108;SDS011;54027;50.786;7.058;2023-05-20T13:31:47;4.97;;;3.60;;
67108;SDS011;54027;50.786;7.058;2023-05-20T13:34:13;5.95;;;3.78;;
67108;SDS011;54027;50.786;7.058;2023-05-20T13:36:39;4.53;;;3.72;;
67108;SDS011;54027;50.786;7.058;2023-05-20T13:39:04;5.47;;;3.88;;
67108;SDS011;54027;50.786;7.058;2023-05-20T13:41:30;7.75;;;3.85;;
67108;SDS011;54027;50.786;7.058;2023-05-20T13:43:56;5.90;;;3.78;;
67108;SDS011;54027;50.786;7.058;2023-05-20T13:46:22;6.80;;;3.97;;
67108;SDS011;54027;50.786;7.058;2023-05-20T13:48:47;4.93;;;3.80;;
67108;SDS011;54027;50.786;7.058;2023-05-20T13:51:12;4.72;;;3.80;;
67108;SDS011;54027;50.786;7.058;2023-05-20T13:53:38;6.88;;;3.88;;
67108;SDS011;54027;50.786;7.058;2023-05-20T13:56:04;4.65;;;3.50;;
67108;SDS011;54027;50.786;7.058;2023-05-20T13:58:30;6.38;;;4.30;;
67108;SDS011;54027;50.786;7.058;2023-05-20T14:00:55;4.47;;;3.28;;
67108;SDS011;54027;50.786;7.058;2023-05-20T14:03:21;6.28;;;3.50;;
67108;SDS011;54027;50.786;7.058;2023-05-20T14:05:46;5.55;;;4.25;;
67108;SDS011;54027;50.786;7.058;2023-05-20T14:08:12;4.65;;;3.78;;
67108;SDS011;54027;50.786;7.058;2023-05-20T14:10:38;6.38;;;3.55;;
67108;SDS011;54027;50.786;7.058;2023-05-20T14:13:03;5.28;;;3.95;;
67108;SDS011;54027;50.786;7.058;2023-05-20T14:15:29;7.20;;;4.28;;
67108;SDS011;54027;50.786;7.058;2023-05-20T14:17:57;5.65;;;4.30;;
67108;SDS011;54027;50.786;7.058;2023-05-20T14:20:23;5.35;;;3.97;;
67108;SDS011;54027;50.786;7.058;2023-05-20T14:22:50;5.40;;;4.20;;
67108;SDS011;54027;50.786;7.058;2023-05-20T14:25:16;7.82;;;3.97;;
67108;SDS011;54027;50.786;7.058;2023-05-20T14:27:42;6.15;;;3.78;;
67108;SDS011;54027;50.786;7.058;2023-05-20T14:30:08;8.30;;;4.50;;
67108;SDS011;54027;50.786;7.058;2023-05-20T14:32:34;6.07;;;3.72;;
67108;SDS011;54027;50.786;7.058;2023-05-20T14:34:59;7.05;;;3.70;;
67108;SDS011;54027;50.786;7.058;2023-05-20T14:37:25;5.70;;;3.42;;
67108;SDS011;54027;50.786;7.058;2023-05-20T14:39:52;7.50;;;3.70;;
67108;SDS011;54027;50.786;7.058;2023-05-20T14:42:18;5.35;;;3.33;;
67108;SDS011;54027;50.786;7.058;2023-05-20T14:44:43;5.47;;;3.80;;
67108;SDS011;54027;50.786;7.058;2023-05-20T14:47:08;4.20;;;3.50;;
67108;SDS011;54027;50.786;7.058;2023-05-20T14:49:34;5.00;;;4.00;;
67108;SDS011;54027;50.786;7.058;2023-05-20T14:52:02;4.30;;;3.55;;
67108;SDS011;54027;50.786;7.058;2023-05-20T14:54:27;7.50;;;3.80;;
67108;SDS011;54027;50.786;7.058;2023-05-20T14:56:53;6.28;;;3.88;;